Main page
METAR-TAF:

METAR-TAF

Airports :

Larissa, Greece

latitude: 39-38N, longitude: 022-25E, elevation: 73 m

METAR: missing

Time: 06:22 (04:22 UTC)

Forecast

The report was made 2 hours and 22 minutes ago, at 02:00 UTC
Forecast valid from 06 at 03 UTC to 06 at 12 UTC
Wind 8 kt from the West/Southwest
Visibility 10 km or more
Few clouds at a height of 2000 ft
Broken clouds at a height of 8000 ft

TAF: LGLR 060200Z 0603/0612 25008KT 9999 FEW020 BKN080

Weather observations and forecasts of more than 4000 airports (METAR and TAF reports).

The available stations are represented by yellow and red dots on the map.

Hover mouse over dot to see the name of the station.

Then click to see weather observations and forecasts.

To change the map : click on the green buttons with a black cross to zoom in, on the green button with a dash to zoom out, or on the green arrows for adjacent maps.


METAR-TAF: